Hessel, MI

12:53 AM EDT on July 29, 2015 (GMT -0400)
No. 8 Island | | Change Station
CLOSE
Current Station
Personal Weather Station
Location: Cedarville, MI
Elevation: 587 ft
Nearby Weather Stations

Elev 587 ft 45.98 °N, 84.31 °W | Updated 6 seconds ago

Partly Cloudy
Partly Cloudy
72.6 °F
Feels Like 74 °F
N
0.0
Wind Variable Wind from SSE
Gusts 0.0 mph

Today
High -- | Low -- °F
--% Chance of Precip.
Yesterday
High -- | Low -- °F
Precip. -- in
6:15 AM 9:10 PM
Waxing Gibbous, 93% visible
Pressure 29.93 in
Visibility 10.0 miles
Clouds Clear
Heat Index 74 °F
Dew Point 65 °F
Humidity 77%
Rainfall 0.00 in
Snow Depth Not available.
UV 0 out of 12
Pollen 6.30 out of 12
Air Quality Not available.
Flu Activity Not available.
METAR KCIU 290435Z AUTO 16005KT 10SM CLR 22/17 A2993 RMK AO1

More Conditions Fewer Conditions

Pressure 29.93 in
Visibility 10.0 miles
Clouds Clear
Heat Index 74 °F
Dew Point 65 °F
Humidity 77%
Rainfall 0.00 in
Snow Depth Not available.
UV 0 out of 12
Pollen 6.30 out of 12
Air Quality Not available.
Flu Activity Not available.
METAR KCIU 290435Z AUTO 16005KT 10SM CLR 22/17 A2993 RMK AO1

More Conditions Fewer Conditions

Nowcast | as of 11:00 PM EDT on July 28, 2015

At 12 am...mostly clear. Temperature 71. Light winds. At 2 am...mostly clear. Temperature 71. Light winds. At 4 am...partly cloudy. Temperature 70. Light winds. At 6 am...partly cloudy. Temperature 70. South winds 7 mph.

×

10-Day Weather Forecast

×

Almanac

Astronomy

Jul. 29, 2015 Rise Set
Actual Time
Civil Twilight
Nautical Twilight
Astronomical Twilight
Moon
Length of Visible Light
Length of Day
Tomorrow will be .
, % of the Moon is Illuminated

Today's Extremes

State Highs State Lows

Community

WunderPhotos

Upload Photos

1,842,045 photos uploaded!

WunderBlogs® & News

Nearby

Air Quality

  Air Quality AQ Index Pollutant
Not available.

Snow Depth

Station Depth Elevation

Earthquake Activity

City Distance Mag. Time & Date
Minimum magnitude displayed is 2.5.

Coastal Water Temperatures

Place Temperature

Stations

Nearby Weather Stations

Station Location Temp. Windchill Dew Point Humidity Wind Precip. Elev Updated Type